Time;durP1;ratioP1;P1;durP2;ratioP2;P2;SDS_P1;SDS_P2;PMS_P1;PMS_P2;Temp;Humidity;BMP_temperature;BMP_pressure;BME280_temperature;BME280_humidity;BME280_pressure;Samples;Min_cycle;Max_cycle;Signal;HPM_P1;HPM_P2
2021/08/01 00:02:27;;;;;;;4.87;4.47;;;19.70;99.90;;;;;;10238313;28;20248;-81
2021/08/01 00:07:29;;;;;;;6.40;5.80;;;19.50;99.90;;;;;;10231788;29;20405;-81
2021/08/01 00:12:33;;;;;;;7.00;5.73;;;19.20;99.90;;;;;;10232796;28;20705;-81
2021/08/01 00:17:35;;;;;;;6.27;5.67;;;19.10;99.90;;;;;;10235793;29;20249;-82
2021/08/01 00:22:37;;;;;;;7.23;6.60;;;18.90;99.90;;;;;;10233545;29;20235;-81
2021/08/01 00:27:41;;;;;;;11.30;7.90;;;18.80;99.90;;;;;;10221183;29;20319;-82
2021/08/01 00:32:44;;;;;;;7.90;7.20;;;18.60;99.90;;;;;;10236948;28;20323;-82
2021/08/01 00:37:47;;;;;;;6.93;6.23;;;18.50;99.90;;;;;;10234835;29;20216;-81
2021/08/01 00:42:52;;;;;;;7.40;6.83;;;18.30;99.90;;;;;;10259897;28;20228;-82
2021/08/01 00:47:54;;;;;;;7.30;6.70;;;18.20;99.90;;;;;;10222304;29;20580;-82
2021/08/01 00:52:58;;;;;;;6.73;6.33;;;18.10;99.90;;;;;;10232055;28;20233;-82
2021/08/01 00:58:01;;;;;;;7.73;7.03;;;18.00;99.90;;;;;;10260714;29;20208;-81
2021/08/01 01:03:15;;;;;;;7.60;7.00;;;17.90;99.90;;;;;;10250258;28;20231;-81
2021/08/01 01:08:26;;;;;;;13.07;7.63;;;17.70;99.90;;;;;;10234607;29;20224;-81
2021/08/01 01:13:54;;;;;;;8.40;7.70;;;17.60;99.90;;;;;;10233611;28;20236;-82
2021/08/01 01:19:00;;;;;;;7.33;6.70;;;17.60;99.90;;;;;;10226647;29;20584;-82
2021/08/01 01:24:06;;;;;;;7.07;6.60;;;17.60;99.90;;;;;;10235069;28;20232;-81
2021/08/01 01:29:32;;;;;;;8.60;7.83;;;17.60;99.90;;;;;;10239082;29;20288;-81
2021/08/01 01:34:46;;;;;;;9.20;8.30;;;17.60;99.90;;;;;;10225591;28;20243;-82
2021/08/01 01:39:51;;;;;;;9.50;8.77;;;17.60;99.90;;;;;;10221555;29;20706;-82
2021/08/01 01:45:29;;;;;;;8.20;7.50;;;17.60;99.90;;;;;;10201032;29;20292;-81
2021/08/01 01:50:32;;;;;;;9.57;8.77;;;17.60;99.90;;;;;;10237357;29;20288;-82
2021/08/01 01:55:38;;;;;;;9.50;8.70;;;17.60;99.90;;;;;;10237871;29;20240;-82
2021/08/01 02:00:40;;;;;;;9.77;8.73;;;17.60;99.90;;;;;;10229325;29;20208;-81
2021/08/01 02:05:43;;;;;;;8.30;7.67;;;17.60;99.90;;;;;;10221053;29;20269;-81
2021/08/01 02:10:53;;;;;;;9.70;8.70;;;17.60;99.90;;;;;;10255417;29;20228;-81
2021/08/01 02:15:57;;;;;;;9.10;8.17;;;17.60;99.90;;;;;;10236975;29;20235;-82
2021/08/01 02:21:03;;;;;;;10.40;8.30;;;17.60;99.90;;;;;;10234926;29;20205;-81
2021/08/01 02:26:07;;;;;;;8.67;7.53;;;17.60;99.90;;;;;;10226847;29;20599;-81
2021/08/01 02:31:12;;;;;;;9.27;8.47;;;17.60;99.90;;;;;;10232386;29;20251;-81
2021/08/01 02:36:15;;;;;;;8.57;7.87;;;17.60;99.90;;;;;;10209810;29;20327;-81
2021/08/01 02:41:28;;;;;;;10.67;8.90;;;17.60;99.90;;;;;;10231964;29;20201;-81
2021/08/01 02:46:33;;;;;;;10.30;9.30;;;17.50;99.90;;;;;;10232152;29;20585;-81
2021/08/01 02:51:35;;;;;;;9.20;8.50;;;17.50;99.90;;;;;;10251242;28;20299;-81
2021/08/01 02:56:40;;;;;;;9.73;9.03;;;17.50;99.90;;;;;;10261715;28;20684;-81
2021/08/01 03:01:43;;;;;;;12.03;8.83;;;17.60;99.90;;;;;;10243259;29;20219;-81
2021/08/01 03:06:46;;;;;;;9.00;8.30;;;17.70;99.90;;;;;;10243845;29;20727;-82
2021/08/01 03:11:50;;;;;;;10.80;9.80;;;17.70;99.90;;;;;;10244435;29;20212;-81
2021/08/01 03:16:57;;;;;;;10.37;9.57;;;17.70;99.90;;;;;;10222129;29;20236;-81
2021/08/01 03:21:59;;;;;;;10.33;9.40;;;17.70;99.90;;;;;;10239676;29;20705;-82
2021/08/01 03:27:08;;;;;;;9.50;8.77;;;17.60;99.90;;;;;;10246180;29;20254;-81
2021/08/01 03:32:10;;;;;;;9.40;8.50;;;17.60;99.90;;;;;;10247304;28;20292;-82
2021/08/01 03:37:12;;;;;;;11.70;8.67;;;17.50;99.90;;;;;;10265117;29;20245;-82
2021/08/01 03:42:35;;;;;;;9.40;8.50;;;17.50;99.90;;;;;;10255379;28;20253;-82
2021/08/01 03:47:38;;;;;;;8.80;7.90;;;17.50;99.90;;;;;;10249360;29;20591;-81
2021/08/01 03:52:40;;;;;;;9.50;8.70;;;17.40;99.90;;;;;;10249988;28;20231;-82
2021/08/01 03:57:44;;;;;;;10.20;9.17;;;17.40;99.90;;;;;;10249651;29;20205;-81
2021/08/01 04:02:46;;;;;;;9.37;8.30;;;17.40;99.90;;;;;;10247350;28;20272;-82
2021/08/01 04:07:48;;;;;;;9.97;9.03;;;17.30;99.90;;;;;;10251343;29;20244;-82
2021/08/01 04:12:52;;;;;;;10.07;9.10;;;17.30;99.90;;;;;;10265743;28;20756;-82
2021/08/01 04:17:54;;;;;;;9.80;8.90;;;17.30;99.90;;;;;;10222787;29;20241;-82
2021/08/01 04:22:56;;;;;;;11.97;9.23;;;17.30;99.90;;;;;;10236409;28;20237;-82
2021/08/01 04:28:00;;;;;;;10.80;9.67;;;17.30;99.90;;;;;;10240840;29;20236;-82
2021/08/01 04:33:02;;;;;;;9.97;8.97;;;17.30;99.90;;;;;;10242532;28;20239;-81
2021/08/01 04:38:04;;;;;;;11.30;9.50;;;17.20;99.90;;;;;;10214359;29;20279;-82
2021/08/01 04:43:08;;;;;;;10.63;9.53;;;17.20;99.90;;;;;;10243365;28;20236;-82
2021/08/01 04:48:10;;;;;;;11.40;10.10;;;17.20;99.90;;;;;;10239204;29;20309;-82
2021/08/01 04:53:12;;;;;;;10.57;9.53;;;17.20;99.90;;;;;;10225964;28;20260;-82
2021/08/01 04:58:15;;;;;;;9.43;8.63;;;17.20;99.90;;;;;;10239532;29;20212;-82
2021/08/01 05:03:17;;;;;;;10.33;9.43;;;17.20;99.90;;;;;;10239778;28;20240;-82
2021/08/01 05:08:20;;;;;;;8.90;8.10;;;17.20;99.90;;;;;;10235680;29;20240;-82
2021/08/01 05:13:23;;;;;;;9.00;8.30;;;17.20;99.90;;;;;;10251032;28;20230;-82
2021/08/01 05:18:25;;;;;;;9.10;8.40;;;17.20;99.90;;;;;;10231421;29;20659;-82
2021/08/01 05:23:27;;;;;;;9.40;8.60;;;17.30;99.90;;;;;;10232801;28;20232;-82
2021/08/01 05:28:31;;;;;;;9.37;8.57;;;17.30;99.90;;;;;;10242013;29;20228;-82
2021/08/01 05:33:33;;;;;;;9.97;9.17;;;17.30;99.90;;;;;;10243356;28;20269;-82
2021/08/01 05:38:35;;;;;;;10.77;9.97;;;17.40;99.90;;;;;;10260575;29;20193;-82
2021/08/01 05:43:39;;;;;;;10.53;9.43;;;17.60;99.90;;;;;;10262765;28;20319;-82
2021/08/01 05:48:42;;;;;;;9.30;8.50;;;17.60;99.90;;;;;;10246208;29;20224;-82
2021/08/01 05:53:44;;;;;;;9.67;8.77;;;17.70;99.90;;;;;;10240866;28;20228;-82
2021/08/01 05:58:47;;;;;;;9.03;7.90;;;17.70;99.90;;;;;;10248010;29;20295;-82
2021/08/01 06:03:49;;;;;;;9.30;8.50;;;17.70;99.90;;;;;;10264293;28;20647;-81
2021/08/01 06:08:53;;;;;;;9.43;8.83;;;17.70;99.90;;;;;;10247012;29;20224;-82
2021/08/01 06:13:56;;;;;;;9.70;8.90;;;17.80;99.90;;;;;;10231210;28;20236;-82
2021/08/01 06:18:58;;;;;;;8.10;7.40;;;17.90;99.90;;;;;;10244022;29;20615;-82
2021/08/01 06:24:00;;;;;;;8.53;7.73;;;17.90;99.90;;;;;;10259112;28;20632;-81
2021/08/01 06:29:04;;;;;;;9.67;8.77;;;17.90;99.90;;;;;;10253567;29;20238;-82
2021/08/01 06:40:10;;;;;;;9.07;8.37;;;18.10;99.90;;;;;;10243440;29;20215;-85
2021/08/01 06:45:17;;;;;;;7.90;7.20;;;18.20;99.90;;;;;;10236732;28;20294;-84
2021/08/01 06:50:20;;;;;;;8.33;7.60;;;18.30;99.90;;;;;;10229097;29;20319;-85
2021/08/01 06:55:24;;;;;;;7.93;7.20;;;18.50;99.90;;;;;;10241680;28;20237;-84
2021/08/01 07:00:39;;;;;;;9.17;8.37;;;18.60;99.90;;;;;;10236630;29;20288;-85
2021/08/01 07:05:45;;;;;;;7.73;7.03;;;18.70;99.90;;;;;;10230402;29;20233;-84
2021/08/01 07:10:53;;;;;;;8.80;8.10;;;18.90;99.90;;;;;;10213079;29;20615;-84
2021/08/01 07:16:03;;;;;;;9.50;7.27;;;19.10;99.90;;;;;;10229361;29;20260;-85
2021/08/01 07:21:08;;;;;;;6.90;6.40;;;19.20;99.90;;;;;;10219516;29;20240;-85
2021/08/01 07:26:18;;;;;;;6.80;6.20;;;19.20;99.90;;;;;;10247757;29;20220;-84
2021/08/01 07:31:22;;;;;;;7.57;6.87;;;19.20;99.90;;;;;;10216664;29;20678;-85
2021/08/01 07:36:26;;;;;;;7.93;7.03;;;19.10;99.90;;;;;;10234880;28;20245;-86
2021/08/01 07:41:31;;;;;;;7.03;6.30;;;19.20;99.90;;;;;;10228177;29;20215;-85
2021/08/01 07:46:35;;;;;;;7.00;6.50;;;19.10;99.90;;;;;;10217862;29;20261;-85
2021/08/01 07:51:40;;;;;;;7.90;7.20;;;19.10;99.90;;;;;;10238453;29;20232;-85
2021/08/01 07:56:43;;;;;;;8.73;7.93;;;18.90;99.90;;;;;;10228544;29;20237;-85
2021/08/01 08:01:46;;;;;;;8.03;7.33;;;18.70;99.90;;;;;;10229964;29;20215;-85
2021/08/01 08:06:51;;;;;;;8.90;8.20;;;18.50;99.90;;;;;;10217965;29;20292;-85
2021/08/01 08:11:53;;;;;;;11.50;9.17;;;18.30;99.90;;;;;;10210889;29;20224;-86
2021/08/01 08:16:58;;;;;;;8.90;8.30;;;18.20;99.90;;;;;;10255580;29;20236;-85
2021/08/01 08:22:00;;;;;;;8.80;8.10;;;18.10;99.90;;;;;;10239860;29;20216;-84
2021/08/01 08:27:03;;;;;;;9.33;8.43;;;18.10;99.90;;;;;;10229579;29;20236;-84
2021/08/01 08:32:07;;;;;;;9.80;8.80;;;18.10;99.90;;;;;;10224464;29;20236;-84
2021/08/01 08:37:09;;;;;;;10.37;9.53;;;18.10;99.90;;;;;;10238854;29;20225;-85
2021/08/01 08:42:16;;;;;;;10.20;9.30;;;18.10;99.90;;;;;;10223636;29;20641;-84
2021/08/01 08:47:24;;;;;;;9.87;9.00;;;18.20;99.90;;;;;;10214235;28;20775;-84
2021/08/01 08:52:28;;;;;;;8.07;7.50;;;18.30;99.90;;;;;;10219364;29;20236;-84
2021/08/01 08:57:37;;;;;;;7.87;7.10;;;18.40;99.90;;;;;;10206350;29;20233;-85
2021/08/01 09:02:41;;;;;;;7.30;6.60;;;18.60;99.90;;;;;;10216422;29;20661;-85
2021/08/01 09:07:43;;;;;;;8.33;7.63;;;18.70;99.90;;;;;;10213035;29;20263;-84
2021/08/01 09:12:47;;;;;;;9.03;8.33;;;18.90;99.90;;;;;;10205368;28;20213;-85
2021/08/01 09:17:53;;;;;;;9.70;7.33;;;19.20;99.90;;;;;;10190683;29;20205;-85
2021/08/01 09:23:08;;;;;;;9.50;8.23;;;19.50;99.90;;;;;;10195095;29;20208;-85
2021/08/01 09:28:12;;;;;;;7.30;6.60;;;19.80;99.90;;;;;;10191251;29;20212;-85
2021/08/01 09:33:20;;;;;;;8.87;7.20;;;19.90;99.90;;;;;;10227520;29;20229;-85
2021/08/01 09:38:22;;;;;;;9.47;7.57;;;20.00;99.90;;;;;;10221041;29;20623;-85
2021/08/01 09:43:24;;;;;;;7.57;6.80;;;20.10;99.90;;;;;;10207986;29;20228;-85
2021/08/01 09:48:35;;;;;;;7.40;6.70;;;20.20;99.90;;;;;;10205406;29;20232;-85
2021/08/01 09:53:42;;;;;;;6.20;5.67;;;20.20;99.90;;;;;;10209193;29;20233;-86
2021/08/01 09:58:48;;;;;;;4.37;4.07;;;20.10;99.90;;;;;;10208740;29;20212;-85
2021/08/01 10:03:51;;;;;;;5.60;5.20;;;20.00;99.90;;;;;;10212122;29;20224;-86
2021/08/01 10:08:54;;;;;;;5.83;5.40;;;19.90;99.90;;;;;;10199598;29;20212;-85
2021/08/01 10:13:59;;;;;;;5.43;5.07;;;19.90;99.90;;;;;;10190285;29;20324;-85
2021/08/01 10:19:02;;;;;;;5.80;5.30;;;19.90;99.90;;;;;;10189292;29;20284;-84
2021/08/01 10:24:17;;;;;;;5.60;5.30;;;20.10;99.90;;;;;;10189358;29;20296;-85
2021/08/01 10:29:37;;;;;;;5.50;5.10;;;20.50;99.90;;;;;;10222227;29;20212;-86
2021/08/01 10:35:14;;;;;;;5.07;4.67;;;21.00;99.90;;;;;;10189889;29;20259;-85
2021/08/01 10:40:21;;;;;;;4.33;3.93;;;21.40;99.90;;;;;;10190078;29;20696;-85
2021/08/01 10:45:24;;;;;;;4.53;4.23;;;21.70;99.90;;;;;;10190883;29;20240;-84
2021/08/01 10:50:49;;;;;;;4.20;3.80;;;21.80;99.90;;;;;;10187836;29;20221;-85
2021/08/01 11:02:31;;;;;;;3.30;3.10;;;22.10;99.90;;;;;;10224611;29;20194;-85
2021/08/01 11:08:02;;;;;;;4.40;4.00;;;22.20;99.90;;;;;;10209209;29;20600;-86
2021/08/01 11:13:44;;;;;;;4.00;3.70;;;22.30;99.90;;;;;;10233409;28;20263;-84
2021/08/01 11:18:48;;;;;;;3.60;3.40;;;22.20;99.90;;;;;;10230374;29;20208;-84
2021/08/01 11:24:19;;;;;;;4.03;3.73;;;22.10;99.90;;;;;;10262622;28;20294;-85
2021/08/01 11:29:24;;;;;;;4.30;4.00;;;22.10;99.90;;;;;;10213367;29;20213;-85
2021/08/01 11:34:36;;;;;;;4.60;4.20;;;22.10;99.90;;;;;;10226451;28;20244;-85
2021/08/01 11:40:02;;;;;;;4.73;4.43;;;22.30;99.90;;;;;;10212048;29;20689;-85
2021/08/01 11:45:17;;;;;;;6.93;4.80;;;22.40;99.90;;;;;;10215589;29;20251;-85
2021/08/01 11:50:31;;;;;;;4.77;4.40;;;22.50;99.90;;;;;;10199896;29;20213;-85
2021/08/01 11:55:36;;;;;;;4.93;4.60;;;22.60;99.90;;;;;;10222790;28;20638;-85
2021/08/01 12:00:48;;;;;;;4.90;4.43;;;22.60;99.90;;;;;;10216066;29;20208;-84
2021/08/01 12:05:55;;;;;;;4.67;4.37;;;22.70;99.90;;;;;;10185844;29;20227;-84
2021/08/01 12:11:10;;;;;;;5.03;4.33;;;22.60;99.90;;;;;;10196008;29;20218;-85
2021/08/01 12:16:52;;;;;;;4.60;4.20;;;22.50;99.90;;;;;;10195000;29;20234;-84
2021/08/01 12:21:57;;;;;;;5.43;4.90;;;22.50;99.90;;;;;;10211278;29;20677;-84
2021/08/01 12:27:03;;;;;;;5.47;5.07;;;22.50;99.90;;;;;;10194001;29;20311;-84
2021/08/01 12:32:21;;;;;;;8.70;4.90;;;22.50;99.90;;;;;;10198070;29;20225;-84
2021/08/01 12:37:23;;;;;;;4.80;4.40;;;22.40;99.90;;;;;;10326449;23;20253;-81
2021/08/01 12:42:27;;;;;;;4.60;4.20;;;22.20;99.90;;;;;;10362435;28;20293;-81
2021/08/01 12:47:31;;;;;;;5.03;4.63;;;22.10;99.90;;;;;;10354171;28;20729;-81
2021/08/01 12:52:34;;;;;;;4.60;3.97;;;22.20;99.90;;;;;;10347116;28;20233;-81
2021/08/01 12:57:58;;;;;;;4.40;4.00;;;22.40;99.90;;;;;;10331288;28;20226;-81
2021/08/01 13:03:02;;;;;;;4.80;4.47;;;22.40;99.90;;;;;;10379544;28;20257;-81
2021/08/01 13:08:05;;;;;;;4.70;4.30;;;22.50;99.90;;;;;;10360356;28;20254;-82
2021/08/01 13:13:14;;;;;;;4.30;4.00;;;22.50;99.90;;;;;;10354727;28;20215;-82
2021/08/01 13:18:25;;;;;;;6.17;4.47;;;22.40;99.90;;;;;;10334980;28;20230;-81
2021/08/01 13:23:38;;;;;;;6.70;4.87;;;22.20;99.90;;;;;;10326061;28;20718;-82
2021/08/01 13:28:59;;;;;;;6.37;4.70;;;22.10;99.90;;;;;;10322339;28;20207;-82
2021/08/01 13:34:04;;;;;;;5.10;4.70;;;22.10;99.90;;;;;;10325933;28;20321;-82
2021/08/01 13:39:06;;;;;;;4.50;4.20;;;22.30;99.90;;;;;;10311765;28;20215;-81
2021/08/01 13:44:11;;;;;;;5.50;5.00;;;22.30;99.90;;;;;;10325733;28;20695;-81
2021/08/01 13:49:13;;;;;;;5.40;5.00;;;22.40;99.90;;;;;;10328603;28;20528;-81
2021/08/01 13:54:15;;;;;;;4.17;3.90;;;22.40;99.90;;;;;;10327217;28;20250;-81
2021/08/01 13:59:19;;;;;;;4.53;4.23;;;22.20;99.90;;;;;;10340030;28;20191;-81
2021/08/01 14:04:21;;;;;;;6.53;6.03;;;22.00;99.90;;;;;;10340771;28;20257;-81
2021/08/01 14:09:23;;;;;;;4.63;4.30;;;21.80;99.90;;;;;;10348133;28;20238;-81
2021/08/01 14:14:27;;;;;;;5.30;4.90;;;21.70;99.90;;;;;;10342029;28;20744;-81
2021/08/01 14:19:29;;;;;;;5.33;4.93;;;21.70;99.90;;;;;;10348839;28;20195;-81
2021/08/01 14:24:32;;;;;;;5.00;4.37;;;21.90;99.90;;;;;;10370260;28;20223;-81
2021/08/01 14:29:38;;;;;;;4.30;4.00;;;22.10;99.90;;;;;;10341951;28;20219;-82
2021/08/01 14:34:43;;;;;;;4.63;4.33;;;22.30;99.90;;;;;;10340928;28;20222;-81
2021/08/01 14:39:46;;;;;;;3.30;3.00;;;22.20;99.90;;;;;;10329274;28;20206;-81
2021/08/01 14:44:49;;;;;;;2.77;2.57;;;22.10;99.90;;;;;;10346221;28;20233;-81
2021/08/01 14:49:53;;;;;;;2.63;2.40;;;21.90;99.90;;;;;;10382603;28;20243;-82
2021/08/01 14:54:56;;;;;;;2.70;2.50;;;21.70;99.90;;;;;;10350656;28;20234;-81
2021/08/01 15:00:05;;;;;;;4.07;3.50;;;21.60;99.90;;;;;;10372388;28;20210;-82
2021/08/01 15:05:21;;;;;;;2.47;2.10;;;21.60;99.90;;;;;;10320485;28;20227;-81
2021/08/01 15:10:28;;;;;;;1.90;1.80;;;21.50;99.90;;;;;;10371632;28;20252;-81
2021/08/01 15:15:36;;;;;;;2.20;2.00;;;21.40;99.90;;;;;;10382375;28;20226;-81
2021/08/01 15:20:41;;;;;;;2.43;2.23;;;21.30;99.90;;;;;;10362771;28;20203;-81
2021/08/01 15:25:50;;;;;;;2.20;2.10;;;21.30;99.90;;;;;;10380800;28;20223;-81
2021/08/01 15:30:53;;;;;;;2.30;2.20;;;21.10;99.90;;;;;;10357242;28;20491;-81
2021/08/01 15:35:56;;;;;;;2.47;1.70;;;21.00;99.90;;;;;;10381771;28;20304;-81
2021/08/01 15:41:02;;;;;;;2.00;1.90;;;21.10;99.90;;;;;;10389993;28;20202;-81
2021/08/01 15:46:06;;;;;;;2.80;1.70;;;21.20;99.90;;;;;;10371549;28;20706;-81
2021/08/01 15:51:12;;;;;;;2.03;1.87;;;21.20;99.90;;;;;;10369785;28;20234;-81
2021/08/01 15:56:19;;;;;;;1.83;1.73;;;21.30;99.90;;;;;;10363941;28;20341;-81
2021/08/01 16:01:31;;;;;;;2.20;2.10;;;21.20;99.90;;;;;;10358665;28;20700;-81
2021/08/01 16:06:38;;;;;;;2.27;2.17;;;21.00;99.90;;;;;;10387930;28;20219;-81
2021/08/01 16:11:46;;;;;;;2.20;2.00;;;21.10;99.90;;;;;;10357359;28;20257;-81
2021/08/01 16:16:54;;;;;;;3.63;2.53;;;21.00;99.90;;;;;;10354980;28;20229;-81
2021/08/01 16:22:01;;;;;;;4.60;2.30;;;21.10;99.90;;;;;;10321156;28;20199;-81
2021/08/01 16:27:05;;;;;;;4.10;2.17;;;21.20;99.90;;;;;;10306872;28;20227;-81
2021/08/01 16:32:09;;;;;;;1.97;1.87;;;21.30;99.90;;;;;;10346511;28;20786;-81
2021/08/01 16:37:11;;;;;;;3.37;2.50;;;21.20;99.90;;;;;;10324088;28;20234;-81
2021/08/01 16:42:22;;;;;;;2.90;2.70;;;21.20;99.90;;;;;;10319477;28;20564;-81
2021/08/01 16:47:35;;;;;;;2.07;1.97;;;21.20;99.90;;;;;;10301194;28;20257;-81
2021/08/01 16:52:43;;;;;;;2.57;2.37;;;21.20;99.90;;;;;;10337752;28;20306;-81
2021/08/01 16:57:54;;;;;;;2.50;2.30;;;21.10;99.90;;;;;;10301112;28;20313;-81
2021/08/01 17:03:06;;;;;;;2.00;1.90;;;21.00;99.90;;;;;;10338133;28;20198;-80
2021/08/01 17:08:11;;;;;;;2.10;1.90;;;21.00;99.90;;;;;;10337927;28;20600;-81
2021/08/01 17:13:19;;;;;;;2.63;2.43;;;21.00;99.90;;;;;;10339578;28;20222;-80
2021/08/01 17:18:22;;;;;;;2.40;2.30;;;20.90;99.90;;;;;;10336550;28;20597;-82
2021/08/01 17:23:24;;;;;;;2.30;2.13;;;21.00;99.90;;;;;;10319644;28;20716;-82
2021/08/01 17:28:27;;;;;;;1.90;1.80;;;21.00;99.90;;;;;;10301788;28;20230;-82
2021/08/01 17:33:36;;;;;;;2.33;1.87;;;21.10;99.90;;;;;;10299687;28;20239;-83
2021/08/01 17:38:46;;;;;;;3.60;2.67;;;21.10;99.90;;;;;;10332779;28;20206;-83
2021/08/01 17:43:48;;;;;;;1.90;1.80;;;21.20;99.90;;;;;;10315338;28;20261;-82
2021/08/01 17:48:51;;;;;;;2.67;1.93;;;21.20;99.90;;;;;;10317732;28;20206;-82
2021/08/01 17:53:53;;;;;;;2.70;2.50;;;21.10;99.90;;;;;;10318900;28;20262;-82
2021/08/01 17:58:56;;;;;;;2.30;2.10;;;21.00;99.90;;;;;;10316547;28;20696;-82
2021/08/01 18:04:00;;;;;;;2.10;2.00;;;20.90;99.90;;;;;;10338225;28;20222;-82
2021/08/01 18:09:06;;;;;;;2.43;2.33;;;20.80;99.90;;;;;;10343105;28;20234;-82
2021/08/01 18:14:14;;;;;;;2.97;2.40;;;20.70;99.90;;;;;;10302636;28;20227;-82
2021/08/01 18:19:21;;;;;;;2.27;2.00;;;20.50;99.90;;;;;;10347985;28;20214;-83
2021/08/01 18:24:26;;;;;;;2.30;2.07;;;20.40;99.90;;;;;;10335915;28;20301;-81
2021/08/01 18:29:33;;;;;;;2.10;2.00;;;20.30;99.90;;;;;;10336196;28;20249;-81
2021/08/01 18:34:38;;;;;;;2.30;2.20;;;20.20;99.90;;;;;;10343788;28;20223;-82
2021/08/01 18:39:41;;;;;;;2.57;2.37;;;20.00;99.90;;;;;;10330052;28;20218;-82
2021/08/01 18:44:48;;;;;;;2.70;2.20;;;19.90;99.90;;;;;;10344478;28;20761;-81
2021/08/01 18:49:53;;;;;;;7.20;2.13;;;19.80;99.90;;;;;;10330758;28;20207;-81
2021/08/01 18:54:57;;;;;;;3.53;2.43;;;19.70;99.90;;;;;;10349731;23;20244;-82
2021/08/01 18:59:59;;;;;;;5.00;2.30;;;19.60;99.90;;;;;;10279246;28;20216;-82
2021/08/01 19:05:06;;;;;;;2.30;2.20;;;19.60;99.90;;;;;;10221048;28;20236;-83
2021/08/01 19:10:09;;;;;;;3.17;2.63;;;19.50;99.90;;;;;;10240765;28;20672;-82
2021/08/01 19:15:12;;;;;;;3.00;2.80;;;19.40;99.90;;;;;;10242450;29;20308;-81
2021/08/01 19:20:19;;;;;;;4.03;2.60;;;19.30;99.90;;;;;;10228432;29;20232;-82
2021/08/01 19:25:25;;;;;;;4.47;2.60;;;19.30;99.90;;;;;;10258656;28;20247;-82
2021/08/01 19:30:34;;;;;;;2.90;2.70;;;19.20;99.90;;;;;;10255815;28;20213;-83
2021/08/01 19:35:40;;;;;;;2.70;2.53;;;19.20;99.90;;;;;;10256388;29;20244;-82
2021/08/01 19:40:43;;;;;;;3.00;2.80;;;19.10;99.90;;;;;;10239826;29;20210;-82
2021/08/01 19:45:46;;;;;;;3.43;3.23;;;19.10;99.90;;;;;;10256298;29;20226;-83
2021/08/01 19:50:49;;;;;;;2.60;2.40;;;19.00;99.90;;;;;;10223206;29;20311;-84
2021/08/01 19:55:52;;;;;;;3.30;3.00;;;19.00;99.90;;;;;;10240440;29;20239;-83
2021/08/01 20:00:54;;;;;;;2.87;2.73;;;19.00;99.90;;;;;;10255958;29;20220;-82
2021/08/01 20:05:57;;;;;;;3.00;2.80;;;18.90;99.90;;;;;;10224651;28;20719;-81
2021/08/01 20:10:59;;;;;;;2.60;2.40;;;18.90;99.90;;;;;;10258450;29;20212;-82
2021/08/01 20:16:01;;;;;;;2.77;2.67;;;18.80;99.90;;;;;;10256327;28;20221;-83
2021/08/01 20:21:05;;;;;;;2.67;2.57;;;18.80;99.90;;;;;;10239487;29;20260;-82
2021/08/01 20:26:07;;;;;;;2.90;2.70;;;18.70;99.90;;;;;;10239066;29;20255;-82
2021/08/01 20:31:10;;;;;;;2.70;2.50;;;18.70;99.90;;;;;;10278669;28;20673;-82
2021/08/01 20:36:17;;;;;;;4.10;2.53;;;18.60;99.90;;;;;;10251453;28;20316;-81
2021/08/01 20:41:21;;;;;;;2.97;2.77;;;18.60;99.90;;;;;;10243684;28;20196;-80
2021/08/01 20:46:23;;;;;;;3.60;2.90;;;18.60;99.90;;;;;;10232550;28;20216;-82
2021/08/01 20:51:27;;;;;;;2.80;2.70;;;18.50;99.90;;;;;;10241475;29;20231;-81
2021/08/01 20:56:30;;;;;;;3.40;3.10;;;18.50;99.90;;;;;;10250779;28;20236;-81
2021/08/01 21:01:32;;;;;;;3.87;3.57;;;18.50;99.90;;;;;;10236002;29;20229;-82
2021/08/01 21:06:35;;;;;;;3.00;2.90;;;18.50;99.90;;;;;;10271613;28;20658;-81
2021/08/01 21:11:37;;;;;;;4.00;3.70;;;18.40;99.90;;;;;;10267485;29;20217;-81
2021/08/01 21:16:39;;;;;;;4.60;3.37;;;18.40;99.90;;;;;;10239656;29;20231;-81
2021/08/01 21:21:43;;;;;;;3.50;3.30;;;18.30;99.90;;;;;;10262671;29;20232;-82
2021/08/01 21:26:45;;;;;;;5.40;3.87;;;18.30;99.90;;;;;;10275912;28;20664;-82
2021/08/01 21:31:47;;;;;;;3.47;3.23;;;18.30;99.90;;;;;;10266806;29;20638;-81
2021/08/01 21:36:51;;;;;;;3.30;3.10;;;18.30;99.90;;;;;;10237034;29;20220;-82
2021/08/01 21:41:53;;;;;;;4.17;3.50;;;18.30;99.90;;;;;;10234931;29;20623;-82
2021/08/01 21:46:55;;;;;;;4.67;3.23;;;18.40;99.90;;;;;;10229601;29;20443;-82
2021/08/01 21:51:58;;;;;;;3.20;2.90;;;18.50;99.90;;;;;;10250346;29;20229;-82
2021/08/01 21:57:00;;;;;;;3.07;2.87;;;18.50;99.90;;;;;;10234487;29;20232;-81
2021/08/01 22:02:05;;;;;;;3.50;3.30;;;18.50;99.90;;;;;;10260802;28;20307;-82
2021/08/01 22:07:12;;;;;;;3.40;3.10;;;18.50;99.90;;;;;;10273571;28;20643;-82
2021/08/01 22:12:15;;;;;;;5.13;3.43;;;18.50;99.90;;;;;;10255853;28;20708;-83
2021/08/01 22:17:17;;;;;;;4.23;3.50;;;18.50;99.90;;;;;;10271082;28;20223;-82
2021/08/01 22:22:21;;;;;;;4.30;3.73;;;18.60;99.90;;;;;;10290255;28;20202;-82
2021/08/01 22:27:25;;;;;;;5.30;3.40;;;18.70;99.90;;;;;;10275129;28;20231;-83
2021/08/01 22:32:29;;;;;;;3.30;3.10;;;18.70;99.90;;;;;;10292338;28;20222;-82
2021/08/01 22:37:34;;;;;;;4.00;3.70;;;18.70;99.90;;;;;;10291457;28;20571;-81
2021/08/01 22:42:36;;;;;;;3.40;3.10;;;18.80;99.90;;;;;;10292389;28;20264;-83
2021/08/01 22:47:40;;;;;;;5.20;3.70;;;18.80;99.90;;;;;;10265267;28;20307;-82
2021/08/01 22:52:44;;;;;;;3.40;3.10;;;18.80;99.90;;;;;;10261392;28;20224;-82
2021/08/01 22:57:46;;;;;;;3.03;2.83;;;18.70;99.90;;;;;;10289550;28;20232;-81
2021/08/01 23:02:55;;;;;;;3.40;3.20;;;18.70;99.90;;;;;;10291350;28;20203;-82
2021/08/01 23:08:04;;;;;;;3.50;3.17;;;18.50;99.90;;;;;;10247437;28;20247;-81
2021/08/01 23:13:12;;;;;;;4.80;3.47;;;18.40;99.90;;;;;;10257282;29;20311;-82
2021/08/01 23:18:22;;;;;;;3.30;3.00;;;18.40;99.90;;;;;;10256304;28;20216;-81
2021/08/01 23:23:28;;;;;;;3.80;3.30;;;18.30;99.90;;;;;;10256709;29;20201;-81
2021/08/01 23:28:32;;;;;;;3.60;3.30;;;18.20;99.90;;;;;;10258375;28;20216;-81
2021/08/01 23:33:36;;;;;;;3.30;3.10;;;18.20;99.90;;;;;;10257331;29;20228;-82
2021/08/01 23:38:43;;;;;;;5.33;3.17;;;18.20;99.90;;;;;;10225766;29;20571;-82
2021/08/01 23:43:45;;;;;;;3.27;2.97;;;18.20;99.90;;;;;;10264823;28;20593;-82
2021/08/01 23:48:49;;;;;;;2.97;2.73;;;18.20;99.90;;;;;;10296274;28;20303;-82
2021/08/01 23:54:03;;;;;;;2.77;2.67;;;18.20;99.90;;;;;;10297679;28;20310;-82
2021/08/01 23:59:24;;;;;;;2.53;2.43;;;18.20;99.90;;;;;;10263453;28;20495;-82
